Gulf — V2BB5 — position and weather

sailwx.info

Track history (hours):
 
Tides and Currents Weather Stations Pressure Air Temp Water Temp Dewpoint Dewpoint Depression Visibility Wind Speed Wind Dir Waves Ship Positions

Gulf

Last reported at 2017-Mar-28 04:33 UTC. Time now 2017-Mar-28 14:10 UTC.
Position N 35°55' E 014°33'.

Length 96 m; draft 5.2 m.

Type: Cargo ship. MMSI: 304320000.

Date/timePositionNaut miles runAvg speedWind from/ knotsBaromVisibWave heightAir tempDewpointWater temp
2017-Mar-28 04:33N 35°55' E 014°33'9 3.9
2017-Mar-28 02:17N 35°51' E 014°43'0 0.0
2017-Mar-28 01:29N 35°51' E 014°43'0 0.0
2017-Mar-28 00:32N 35°51' E 014°43'0 0.0
2017-Mar-27 23:23N 35°51' E 014°43'0 0.0
2017-Mar-27 22:26N 35°51' E 014°43'0 0.0
2017-Mar-27 21:26N 35°51' E 014°43'0 0.0
2017-Mar-27 17:32N 35°51' E 014°43'0 0.0
2017-Mar-27 16:29N 35°51' E 014°43'0 0.0
2017-Mar-27 15:32N 35°51' E 014°43'0 0.0
2017-Mar-27 14:26N 35°51' E 014°43'0 0.0
2017-Mar-27 11:29N 35°51' E 014°43'0 0.0
2017-Mar-27 06:08N 35°51' E 014°43'0 0.0
2017-Mar-27 05:29N 35°51' E 014°43'0 0.0
2017-Mar-26 23:11N 35°51' E 014°43'0 0.0
2017-Mar-26 22:32N 35°51' E 014°43'0 0.0
2017-Mar-26 20:05N 35°51' E 014°43'0 0.0
2017-Mar-26 19:29N 35°51' E 014°43'0 0.0
2017-Mar-26 18:23N 35°51' E 014°43'0 0.0
2017-Mar-26 17:32N 35°51' E 014°43'0 0.0
2017-Mar-26 16:23N 35°51' E 014°43'0 0.0
2017-Mar-26 15:29N 35°51' E 014°43'0 0.0
2017-Mar-26 06:14N 35°51' E 014°43'0 0.0
2017-Mar-26 05:32N 35°51' E 014°43'0 0.0
2017-Mar-26 03:29N 35°51' E 014°43'0 0.0
2017-Mar-25 17:20N 35°51' E 014°43'0 0.0
2017-Mar-25 15:17N 35°51' E 014°43'0 0.0
2017-Mar-25 12:32N 35°51' E 014°43'0 0.0
2017-Mar-25 10:26N 35°51' E 014°43'0 0.0
2017-Mar-25 09:26N 35°51' E 014°43'0 0.0
2017-Mar-25 08:29N 35°51' E 014°43'0 0.0
2017-Mar-25 07:32N 35°51' E 014°43'0 0.0
2017-Mar-25 06:23N 35°51' E 014°43'0 0.0
2017-Mar-25 05:29N 35°51' E 014°43'0 0.0
2017-Mar-25 04:32N 35°51' E 014°43'0 0.0
2017-Mar-25 03:32N 35°51' E 014°43'0 0.0
2017-Mar-25 02:32N 35°51' E 014°43'0 0.0
2017-Mar-25 01:20N 35°51' E 014°43'0 0.0
2017-Mar-25 00:26N 35°51' E 014°43'0 0.0
2017-Mar-24 18:29N 35°51' E 014°43'0 0.0
2017-Mar-24 15:05N 35°51' E 014°43'0 0.0
2017-Mar-24 14:11N 35°51' E 014°43'0 0.1
2017-Mar-24 13:32N 35°51' E 014°43'0 0.1
2017-Mar-24 12:32N 35°51' E 014°43'0 0.0
2017-Mar-24 10:29N 35°51' E 014°43'0 0.0
2017-Mar-24 09:17N 35°51' E 014°43'0 0.0
2017-Mar-24 07:05N 35°51' E 014°43'0 0.0
2017-Mar-24 06:32N 35°51' E 014°43'0 0.0
2017-Mar-24 05:29N 35°51' E 014°43'0 0.0
2017-Mar-24 04:29N 35°51' E 014°43'0 0.0
2017-Mar-24 03:32N 35°51' E 014°43'3 1.1
2017-Mar-24 00:26N 35°50' E 014°39'6 7.3
2017-Mar-23 23:33N 35°56' E 014°37'17 8.4
2017-Mar-23 21:33N 36°12' E 014°46'249 8.6
2017-Mar-22 16:29N 39°23' E 018°07'12 8.8
2017-Mar-22 15:08N 39°32' E 018°17'340 8.1
2017-Mar-20 21:09N 44°13' E 013°58'5 7.5
2017-Mar-20 20:33N 44°17' E 013°59'9 8.9
2017-Mar-20 19:33N 44°26' E 014°02'9 9.0
2017-Mar-20 18:33N 44°35' E 014°04'9 9.1
2017-Mar-20 17:33N 44°44' E 014°07'12 9.0
2017-Mar-20 16:12N 44°55' E 014°11'17 9.1
2017-Mar-20 14:17N 45°12' E 014°17'7 8.8
2017-Mar-20 13:33N 45°18' E 014°23'  
Track history (hours):
 
Tides and Currents Weather Stations Pressure Air Temp Water Temp Dewpoint Dewpoint Depression Visibility Wind Speed Wind Dir Waves Ship Positions

Gulf

Last reported at 2017-Mar-28 04:33 UTC. Time now 2017-Mar-28 14:10 UTC.
Position N 35°55' E 014°33'.

Length 96 m; draft 5.2 m.

Type: Cargo ship. MMSI: 304320000.

Date/timePositionNaut miles runAvg speedWind from/ knotsBaromVisibWave heightAir tempDewpointWater temp
2017-Mar-28 04:33N 35°55' E 014°33'9 3.9
2017-Mar-28 02:17N 35°51' E 014°43'0 0.0
2017-Mar-28 01:29N 35°51' E 014°43'0 0.0
2017-Mar-28 00:32N 35°51' E 014°43'0 0.0
2017-Mar-27 23:23N 35°51' E 014°43'0 0.0
2017-Mar-27 22:26N 35°51' E 014°43'0 0.0
2017-Mar-27 21:26N 35°51' E 014°43'0 0.0
2017-Mar-27 17:32N 35°51' E 014°43'0 0.0
2017-Mar-27 16:29N 35°51' E 014°43'0 0.0
2017-Mar-27 15:32N 35°51' E 014°43'0 0.0
2017-Mar-27 14:26N 35°51' E 014°43'0 0.0
2017-Mar-27 11:29N 35°51' E 014°43'0 0.0
2017-Mar-27 06:08N 35°51' E 014°43'0 0.0
2017-Mar-27 05:29N 35°51' E 014°43'0 0.0
2017-Mar-26 23:11N 35°51' E 014°43'0 0.0
2017-Mar-26 22:32N 35°51' E 014°43'0 0.0
2017-Mar-26 20:05N 35°51' E 014°43'0 0.0
2017-Mar-26 19:29N 35°51' E 014°43'0 0.0
2017-Mar-26 18:23N 35°51' E 014°43'0 0.0
2017-Mar-26 17:32N 35°51' E 014°43'0 0.0
2017-Mar-26 16:23N 35°51' E 014°43'0 0.0
2017-Mar-26 15:29N 35°51' E 014°43'0 0.0
2017-Mar-26 06:14N 35°51' E 014°43'0 0.0
2017-Mar-26 05:32N 35°51' E 014°43'0 0.0
2017-Mar-26 03:29N 35°51' E 014°43'0 0.0
2017-Mar-25 17:20N 35°51' E 014°43'0 0.0
2017-Mar-25 15:17N 35°51' E 014°43'0 0.0
2017-Mar-25 12:32N 35°51' E 014°43'0 0.0
2017-Mar-25 10:26N 35°51' E 014°43'0 0.0
2017-Mar-25 09:26N 35°51' E 014°43'0 0.0
2017-Mar-25 08:29N 35°51' E 014°43'0 0.0
2017-Mar-25 07:32N 35°51' E 014°43'0 0.0
2017-Mar-25 06:23N 35°51' E 014°43'0 0.0
2017-Mar-25 05:29N 35°51' E 014°43'0 0.0
2017-Mar-25 04:32N 35°51' E 014°43'0 0.0
2017-Mar-25 03:32N 35°51' E 014°43'0 0.0
2017-Mar-25 02:32N 35°51' E 014°43'0 0.0
2017-Mar-25 01:20N 35°51' E 014°43'0 0.0
2017-Mar-25 00:26N 35°51' E 014°43'0 0.0
2017-Mar-24 18:29N 35°51' E 014°43'0 0.0
2017-Mar-24 15:05N 35°51' E 014°43'0 0.0
2017-Mar-24 14:11N 35°51' E 014°43'0 0.1
2017-Mar-24 13:32N 35°51' E 014°43'0 0.1
2017-Mar-24 12:32N 35°51' E 014°43'0 0.0
2017-Mar-24 10:29N 35°51' E 014°43'0 0.0
2017-Mar-24 09:17N 35°51' E 014°43'0 0.0
2017-Mar-24 07:05N 35°51' E 014°43'0 0.0
2017-Mar-24 06:32N 35°51' E 014°43'0 0.0
2017-Mar-24 05:29N 35°51' E 014°43'0 0.0
2017-Mar-24 04:29N 35°51' E 014°43'0 0.0
2017-Mar-24 03:32N 35°51' E 014°43'3 1.1
2017-Mar-24 00:26N 35°50' E 014°39'6 7.3
2017-Mar-23 23:33N 35°56' E 014°37'17 8.4
2017-Mar-23 21:33N 36°12' E 014°46'249 8.6
2017-Mar-22 16:29N 39°23' E 018°07'12 8.8
2017-Mar-22 15:08N 39°32' E 018°17'340 8.1
2017-Mar-20 21:09N 44°13' E 013°58'5 7.5
2017-Mar-20 20:33N 44°17' E 013°59'9 8.9
2017-Mar-20 19:33N 44°26' E 014°02'9 9.0
2017-Mar-20 18:33N 44°35' E 014°04'9 9.1
2017-Mar-20 17:33N 44°44' E 014°07'12 9.0
2017-Mar-20 16:12N 44°55' E 014°11'17 9.1
2017-Mar-20 14:17N 45°12' E 014°17'7 8.8
2017-Mar-20 13:33N 45°18' E 014°23'  

Dump ship's entire track history